createdAt,value
2019-04-14T00:02:58.044Z,4.90
2019-04-14T00:07:03.604Z,4.80
2019-04-14T00:11:08.362Z,4.80
2019-04-14T00:15:25.688Z,4.70
2019-04-14T00:19:19.640Z,4.70
2019-04-14T00:23:24.238Z,4.60
2019-04-14T00:27:28.769Z,4.60
2019-04-14T00:31:33.441Z,4.50
2019-04-14T00:35:49.592Z,4.60
2019-04-14T00:39:57.570Z,4.60
2019-04-14T00:44:30.051Z,4.50
2019-04-14T00:48:34.615Z,4.60
2019-04-14T00:52:39.414Z,4.50
2019-04-14T00:56:44.101Z,4.50
2019-04-14T01:00:50.092Z,4.60
2019-04-14T01:04:55.546Z,4.50
2019-04-14T01:09:00.201Z,4.50
2019-04-14T01:13:05.839Z,4.50
2019-04-14T01:17:11.284Z,4.50
2019-04-14T01:21:15.861Z,4.50
2019-04-14T01:25:21.479Z,4.50
2019-04-14T01:29:26.080Z,4.50
2019-04-14T01:33:31.591Z,4.50
2019-04-14T01:37:36.218Z,4.60
2019-04-14T01:41:41.139Z,4.50
2019-04-14T01:45:59.014Z,4.50
2019-04-14T01:49:52.970Z,4.50
2019-04-14T01:54:23.508Z,4.40
2019-04-14T01:58:40.676Z,4.40
2019-04-14T02:03:17.021Z,4.30
2019-04-14T02:07:21.692Z,4.30
2019-04-14T02:11:26.982Z,4.30
2019-04-14T02:15:32.954Z,4.20
2019-04-14T02:26:31.019Z,4.10
2019-04-14T02:39:22.513Z,3.80
2019-04-14T02:43:35.168Z,3.20
2019-04-14T02:51:35.024Z,2.90
2019-04-14T03:06:01.083Z,2.50
2019-04-14T03:11:25.866Z,2.40
2019-04-14T03:19:06.780Z,2.40
2019-04-14T03:28:37.821Z,2.30
2019-04-14T03:44:06.772Z,2.10
2019-04-14T03:58:38.089Z,2.00
2019-04-14T04:03:30.600Z,2.00
2019-04-14T04:07:36.413Z,1.90
2019-04-14T04:11:41.568Z,1.90
2019-04-14T04:15:46.183Z,1.90
2019-04-14T04:21:25.351Z,1.90
2019-04-14T04:28:27.801Z,1.80
2019-04-14T04:33:04.371Z,1.80
2019-04-14T04:39:21.462Z,1.80
2019-04-14T04:43:25.986Z,1.80
2019-04-14T04:55:48.347Z,1.70
2019-04-14T04:59:53.942Z,1.70
2019-04-14T05:07:46.975Z,1.90
2019-04-14T05:13:09.340Z,2.10
2019-04-14T05:21:10.586Z,2.10
2019-04-14T05:28:07.361Z,2.30
2019-04-14T05:32:12.958Z,2.50
2019-04-14T05:40:10.178Z,2.70
2019-04-14T05:53:43.865Z,3.20
2019-04-14T05:57:48.512Z,3.40
2019-04-14T06:12:53.316Z,3.30
2019-04-14T06:22:48.972Z,3.20
2019-04-14T06:26:53.551Z,3.30
2019-04-14T06:35:30.790Z,3.30
2019-04-14T07:03:56.610Z,3.40
2019-04-14T07:08:01.172Z,3.50
2019-04-14T07:12:05.789Z,3.50
2019-04-14T07:16:10.441Z,3.60
2019-04-14T07:24:06.686Z,4.10
2019-04-14T07:36:54.864Z,7.20
2019-04-14T07:41:12.877Z,7.90
2019-04-14T07:45:22.281Z,8.70
2019-04-14T07:49:43.657Z,9.20
2019-04-14T07:54:19.443Z,10.00
2019-04-14T08:13:21.130Z,9.50
2019-04-14T08:17:25.712Z,9.10
2019-04-14T08:21:30.241Z,9.40
2019-04-14T08:34:16.324Z,9.40
2019-04-14T08:38:20.895Z,9.10
2019-04-14T08:42:56.420Z,8.40
2019-04-14T08:47:19.043Z,8.40
2019-04-14T08:51:49.287Z,8.20
2019-04-14T09:03:13.246Z,7.80
2019-04-14T09:07:30.661Z,7.70
2019-04-14T09:11:40.005Z,7.70
2019-04-14T09:15:44.592Z,7.60
2019-04-14T09:19:49.152Z,7.70
2019-04-14T09:23:53.776Z,7.70
2019-04-14T09:27:58.342Z,7.70
2019-04-14T09:32:04.441Z,7.70
2019-04-14T09:36:09.000Z,7.80
2019-04-14T09:40:13.556Z,7.80
2019-04-14T09:44:18.084Z,7.90
2019-04-14T09:48:22.637Z,7.90
2019-04-14T09:52:27.255Z,7.90
2019-04-14T09:56:31.840Z,8.00
2019-04-14T10:00:38.002Z,8.40
2019-04-14T10:04:42.560Z,8.70
2019-04-14T10:08:47.135Z,8.80
2019-04-14T10:12:51.688Z,9.00
2019-04-14T10:16:56.285Z,9.20
2019-04-14T10:21:00.881Z,9.00
2019-04-14T10:25:06.753Z,8.90
2019-04-14T10:29:11.676Z,8.90
2019-04-14T10:33:16.291Z,8.90
2019-04-14T10:40:06.222Z,9.00
2019-04-14T10:44:10.952Z,9.00
2019-04-14T10:48:15.516Z,9.00
2019-04-14T10:52:20.104Z,9.10
2019-04-14T10:56:24.637Z,9.10
2019-04-14T11:00:29.309Z,9.10
2019-04-14T11:04:33.876Z,9.00
2019-04-14T11:08:38.428Z,9.00
2019-04-14T11:12:42.997Z,9.00
2019-04-14T11:16:47.887Z,9.10
2019-04-14T11:20:52.452Z,9.20
2019-04-14T11:24:57.005Z,9.30
2019-04-14T11:29:01.560Z,9.40
2019-04-14T11:33:23.861Z,9.40
2019-04-14T11:37:47.361Z,9.40
2019-04-14T11:41:51.920Z,9.40
2019-04-14T11:45:56.468Z,9.40
2019-04-14T11:50:01.013Z,9.40
2019-04-14T11:54:05.828Z,9.40
2019-04-14T11:58:10.460Z,9.50
2019-04-14T12:02:26.658Z,9.50
2019-04-14T12:07:05.575Z,9.60
2019-04-14T12:11:10.145Z,9.70
2019-04-14T12:15:16.532Z,9.60
2019-04-14T12:19:20.954Z,9.70
2019-04-14T12:23:25.545Z,9.70
2019-04-14T12:27:31.826Z,9.50
2019-04-14T12:31:37.410Z,9.40
2019-04-14T12:35:43.198Z,9.30
2019-04-14T12:39:47.780Z,9.30
2019-04-14T12:44:11.249Z,9.20
2019-04-14T12:48:33.499Z,9.20
2019-04-14T12:52:38.053Z,9.10
2019-04-14T12:56:43.590Z,9.00
2019-04-14T13:00:51.780Z,9.00
2019-04-14T13:04:56.555Z,8.90
2019-04-14T13:09:01.145Z,8.90
2019-04-14T13:14:03.616Z,8.80
2019-04-14T13:18:08.223Z,8.80
2019-04-14T13:22:12.822Z,8.70
2019-04-14T13:26:17.392Z,8.70
2019-04-14T13:30:26.450Z,8.80
2019-04-14T13:34:31.008Z,8.70
2019-04-14T13:38:35.564Z,8.70
2019-04-14T13:42:40.133Z,8.70
2019-04-14T13:46:44.685Z,8.60
2019-04-14T13:50:49.225Z,8.60
2019-04-14T13:54:53.779Z,8.50
2019-04-14T13:58:58.333Z,8.50
2019-04-14T14:03:02.875Z,8.40
2019-04-14T14:07:07.740Z,8.30
2019-04-14T14:11:37.538Z,8.30
2019-04-14T14:15:51.244Z,8.40
2019-04-14T14:20:17.750Z,8.40
2019-04-14T14:24:47.028Z,8.40
2019-04-14T14:28:51.609Z,8.30
2019-04-14T14:32:56.165Z,8.30
2019-04-14T14:37:00.688Z,8.20
2019-04-14T14:41:07.135Z,8.30
2019-04-14T14:45:29.641Z,8.30
2019-04-14T14:50:55.603Z,8.20
2019-04-14T14:55:00.155Z,8.20
2019-04-14T14:59:04.867Z,8.10
2019-04-14T15:03:09.375Z,8.10
2019-04-14T15:07:13.930Z,8.00
2019-04-14T15:11:18.476Z,7.90
2019-04-14T15:15:23.025Z,7.90
2019-04-14T15:19:27.619Z,7.80
2019-04-14T15:23:49.939Z,7.70
2019-04-14T15:27:54.867Z,7.70
2019-04-14T15:32:04.697Z,7.60
2019-04-14T15:36:09.513Z,7.50
2019-04-14T15:40:17.271Z,7.50
2019-04-14T15:44:21.916Z,7.50
2019-04-14T15:48:26.497Z,7.40
2019-04-14T15:52:31.083Z,7.50
2019-04-14T15:57:00.591Z,7.40
2019-04-14T16:04:54.516Z,7.40
2019-04-14T16:09:21.072Z,7.30
2019-04-14T16:17:40.160Z,7.30
2019-04-14T16:21:44.731Z,7.20
2019-04-14T16:26:08.216Z,7.20
2019-04-14T16:33:30.443Z,7.10
2019-04-14T16:37:35.268Z,7.00
2019-04-14T16:41:39.809Z,7.00
2019-04-14T16:45:44.387Z,7.00
2019-04-14T16:49:48.904Z,6.90
2019-04-14T16:57:44.478Z,6.90
2019-04-14T17:03:18.791Z,6.80
2019-04-14T17:07:23.349Z,6.80
2019-04-14T17:11:27.903Z,6.80
2019-04-14T17:16:09.587Z,6.80
2019-04-14T17:20:28.057Z,6.80
2019-04-14T17:24:51.647Z,6.80
2019-04-14T17:33:15.893Z,6.70
2019-04-14T17:37:38.537Z,6.70
2019-04-14T17:45:21.365Z,6.80
2019-04-14T17:50:05.527Z,6.70
2019-04-14T17:54:44.123Z,6.70
2019-04-14T17:59:06.851Z,6.70
2019-04-14T18:03:28.986Z,6.70
2019-04-14T18:08:11.799Z,6.60
2019-04-14T18:13:05.209Z,6.70
2019-04-14T18:18:53.296Z,6.70
2019-04-14T18:23:42.780Z,6.80
2019-04-14T18:27:55.508Z,6.80
2019-04-14T18:32:19.007Z,6.80
2019-04-14T18:36:39.984Z,6.80
2019-04-14T18:40:51.612Z,6.80
2019-04-14T18:45:06.557Z,6.80
2019-04-14T18:49:25.704Z,6.80
2019-04-14T18:53:58.315Z,6.80
2019-04-14T19:00:52.220Z,6.80
2019-04-14T19:05:41.801Z,6.90
2019-04-14T19:09:46.365Z,6.90
2019-04-14T19:13:52.691Z,6.90
2019-04-14T19:22:29.087Z,6.90
2019-04-14T19:26:33.660Z,6.90
2019-04-14T19:30:38.221Z,6.90
2019-04-14T19:34:42.757Z,6.90
2019-04-14T19:40:36.053Z,6.90
2019-04-14T19:46:47.726Z,6.80
2019-04-14T19:50:53.250Z,6.90
2019-04-14T19:54:57.839Z,6.90
2019-04-14T19:59:02.403Z,6.90
2019-04-14T20:03:07.065Z,6.90
2019-04-14T20:08:55.184Z,6.90
2019-04-14T20:12:59.764Z,6.90
2019-04-14T20:17:26.076Z,7.00
2019-04-14T20:21:55.723Z,7.00
2019-04-14T20:34:14.972Z,6.90
2019-04-14T20:38:19.529Z,6.90
2019-04-14T20:42:24.094Z,6.90
2019-04-14T20:46:28.713Z,6.80
2019-04-14T20:50:33.266Z,6.90
2019-04-14T20:54:37.821Z,6.80
2019-04-14T20:58:42.377Z,6.80
2019-04-14T21:03:13.460Z,6.80
2019-04-14T21:08:14.123Z,6.80
2019-04-14T21:12:36.387Z,6.80
2019-04-14T21:20:37.971Z,6.80
2019-04-14T21:28:15.948Z,6.80
2019-04-14T21:32:24.071Z,6.70
2019-04-14T21:36:33.825Z,6.70
2019-04-14T21:41:06.320Z,6.70
2019-04-14T21:45:10.993Z,6.70
2019-04-14T21:49:15.548Z,6.70
2019-04-14T21:53:20.161Z,6.70
2019-04-14T21:57:46.739Z,6.70
2019-04-14T22:02:09.447Z,6.80
2019-04-14T22:06:37.848Z,6.80
2019-04-14T22:10:49.003Z,6.80
2019-04-14T22:18:36.895Z,6.80
2019-04-14T22:22:41.444Z,6.80
2019-04-14T22:26:46.017Z,6.80
2019-04-14T22:31:10.692Z,6.80
2019-04-14T22:35:15.227Z,6.80
2019-04-14T22:39:19.900Z,6.80
2019-04-14T22:45:25.196Z,6.80
2019-04-14T22:49:29.778Z,6.80
2019-04-14T23:12:53.882Z,6.80
2019-04-14T23:19:01.748Z,6.90
2019-04-14T23:23:39.056Z,6.80
2019-04-14T23:29:08.328Z,6.80
2019-04-14T23:33:12.869Z,6.80
2019-04-14T23:38:38.348Z,6.80
2019-04-14T23:42:42.904Z,6.80
2019-04-14T23:46:47.463Z,6.80
2019-04-14T23:53:50.827Z,6.80
